createdAt,value
2023-03-06T00:01:00.495Z,23.13
2023-03-06T00:03:28.346Z,23.35
2023-03-06T00:05:57.352Z,25.17
2023-03-06T00:08:25.471Z,24.25
2023-03-06T00:10:52.285Z,23.57
2023-03-06T00:13:19.962Z,24.38
2023-03-06T00:15:48.451Z,22.20
2023-03-06T00:18:15.655Z,23.00
2023-03-06T00:20:43.784Z,24.30
2023-03-06T00:23:11.702Z,24.15
2023-03-06T00:25:42.563Z,23.85
2023-03-06T00:28:09.457Z,23.35
2023-03-06T00:30:36.763Z,23.40
2023-03-06T00:33:03.877Z,24.02
2023-03-06T00:35:30.959Z,24.38
2023-03-06T00:37:59.767Z,24.15
2023-03-06T00:40:27.013Z,22.85
2023-03-06T00:42:53.913Z,23.60
2023-03-06T00:45:20.762Z,24.70
2023-03-06T00:47:47.796Z,23.80
2023-03-06T00:50:14.681Z,23.95
2023-03-06T00:52:42.119Z,24.92
2023-03-06T00:55:10.332Z,24.27
2023-03-06T00:57:37.340Z,26.30
2023-03-06T01:00:05.398Z,26.30
2023-03-06T01:02:32.675Z,24.80
2023-03-06T01:04:59.719Z,24.45
2023-03-06T01:07:27.854Z,26.47
2023-03-06T01:09:54.953Z,25.30
2023-03-06T01:12:23.500Z,26.23
2023-03-06T01:14:50.723Z,25.90
2023-03-06T01:17:17.941Z,25.08
2023-03-06T01:19:44.789Z,24.15
2023-03-06T01:22:11.733Z,25.42
2023-03-06T01:24:39.104Z,24.95
2023-03-06T01:27:06.083Z,25.25
2023-03-06T01:29:33.016Z,23.83
2023-03-06T01:31:59.970Z,25.30
2023-03-06T01:34:26.887Z,24.13
2023-03-06T01:36:53.841Z,24.35
2023-03-06T01:39:20.777Z,25.65
2023-03-06T01:41:47.603Z,25.58
2023-03-06T01:44:14.650Z,23.75
2023-03-06T01:46:43.221Z,24.00
2023-03-06T01:49:36.035Z,26.13
2023-03-06T01:52:09.017Z,24.80
2023-03-06T01:54:59.162Z,24.75
2023-03-06T01:57:30.523Z,23.40
2023-03-06T02:00:05.760Z,24.50
2023-03-06T02:02:40.618Z,26.20
2023-03-06T02:05:08.078Z,26.90
2023-03-06T02:07:36.249Z,25.17
2023-03-06T02:10:03.199Z,27.02
2023-03-06T02:12:30.281Z,24.80
2023-03-06T02:14:57.321Z,23.93
2023-03-06T02:17:24.922Z,24.50
2023-03-06T02:20:19.570Z,24.17
2023-03-06T02:22:52.934Z,23.97
2023-03-06T02:25:42.140Z,24.10
2023-03-06T02:28:13.165Z,24.80
2023-03-06T02:30:41.328Z,26.33
2023-03-06T02:33:10.986Z,25.10
2023-03-06T02:35:39.288Z,25.20
2023-03-06T02:38:13.565Z,26.23
2023-03-06T02:40:43.537Z,25.20
2023-03-06T02:43:11.986Z,24.17
2023-03-06T02:45:47.767Z,24.55
2023-03-06T02:48:16.331Z,24.63
2023-03-06T02:50:44.488Z,24.80
2023-03-06T02:53:14.062Z,25.00
2023-03-06T02:55:41.095Z,24.60
2023-03-06T02:58:08.096Z,25.27
2023-03-06T03:00:35.340Z,25.70
2023-03-06T03:03:02.836Z,24.47
2023-03-06T03:05:29.766Z,24.63
2023-03-06T03:07:56.662Z,25.30
2023-03-06T03:10:23.810Z,26.00
2023-03-06T03:12:51.506Z,25.88
2023-03-06T03:15:18.750Z,24.88
2023-03-06T03:17:45.685Z,26.23
2023-03-06T03:20:17.070Z,26.85
2023-03-06T03:22:48.142Z,26.48
2023-03-06T03:25:14.980Z,26.17
2023-03-06T03:27:41.825Z,25.13
2023-03-06T03:30:10.174Z,25.80
2023-03-06T03:32:37.103Z,27.35
2023-03-06T03:35:05.127Z,25.10
2023-03-06T03:37:32.293Z,27.80
2023-03-06T03:39:59.705Z,27.38
2023-03-06T03:42:26.611Z,27.27
2023-03-06T03:44:53.401Z,27.80
2023-03-06T03:47:20.265Z,26.80
2023-03-06T03:49:47.156Z,27.25
2023-03-06T03:52:13.973Z,27.75
2023-03-06T03:54:42.121Z,26.40
2023-03-06T03:57:09.256Z,26.40
2023-03-06T03:59:36.279Z,25.10
2023-03-06T04:02:04.888Z,25.33
2023-03-06T04:04:32.036Z,25.45
2023-03-06T04:06:58.970Z,25.13
2023-03-06T04:09:25.884Z,27.37
2023-03-06T04:11:52.791Z,27.60
2023-03-06T04:14:19.649Z,25.75
2023-03-06T04:16:46.582Z,26.00
2023-03-06T04:19:13.394Z,26.08
2023-03-06T04:21:40.571Z,26.88
2023-03-06T04:24:07.870Z,26.00
2023-03-06T04:26:36.058Z,25.67
2023-03-06T04:29:02.976Z,26.83
2023-03-06T04:31:30.027Z,26.55
2023-03-06T04:33:56.913Z,27.38
2023-03-06T04:36:29.733Z,26.27
2023-03-06T04:38:57.537Z,27.50
2023-03-06T04:41:24.700Z,27.90
2023-03-06T04:43:52.277Z,26.60
2023-03-06T04:46:19.559Z,27.33
2023-03-06T04:48:46.406Z,26.70
2023-03-06T04:51:13.859Z,26.30
2023-03-06T04:53:40.749Z,29.17
2023-03-06T04:56:07.937Z,27.85
2023-03-06T04:58:34.776Z,28.00
2023-03-06T05:01:01.757Z,29.47
2023-03-06T05:03:28.596Z,28.42
2023-03-06T05:05:55.602Z,28.83
2023-03-06T05:08:23.756Z,31.95
2023-03-06T05:10:59.384Z,32.28
2023-03-06T05:13:27.481Z,33.28
2023-03-06T05:15:54.609Z,32.93
2023-03-06T05:18:21.894Z,32.05
2023-03-06T05:20:48.865Z,31.67
2023-03-06T05:23:15.749Z,33.30
2023-03-06T05:25:42.705Z,32.67
2023-03-06T05:28:09.632Z,34.33
2023-03-06T05:30:36.755Z,34.00
2023-03-06T05:33:03.746Z,35.28
2023-03-06T05:35:30.794Z,34.63
2023-03-06T05:37:57.764Z,32.28
2023-03-06T05:40:24.642Z,33.20
2023-03-06T05:42:51.534Z,33.53
2023-03-06T05:45:18.641Z,33.95
2023-03-06T05:47:45.537Z,33.05
2023-03-06T05:50:14.021Z,32.83
2023-03-06T05:52:41.239Z,33.03
2023-03-06T05:55:11.530Z,34.95
2023-03-06T05:57:38.560Z,34.22
2023-03-06T06:00:06.448Z,34.53
2023-03-06T06:02:33.326Z,33.22
2023-03-06T06:05:02.483Z,34.55
2023-03-06T06:07:29.388Z,31.67
2023-03-06T06:09:56.246Z,30.77
2023-03-06T06:12:23.346Z,31.00
2023-03-06T06:14:50.209Z,30.40
2023-03-06T06:17:17.057Z,32.05
2023-03-06T06:19:43.882Z,31.13
2023-03-06T06:22:11.508Z,31.23
2023-03-06T06:24:38.643Z,30.02
2023-03-06T06:27:05.834Z,33.15
2023-03-06T06:29:33.510Z,30.33
2023-03-06T06:32:01.212Z,29.27
2023-03-06T06:34:28.721Z,31.58
2023-03-06T06:36:55.867Z,29.90
2023-03-06T06:39:23.961Z,31.23
2023-03-06T06:42:09.713Z,29.35
2023-03-06T06:44:39.754Z,32.03
2023-03-06T06:47:22.320Z,29.58
2023-03-06T06:49:55.430Z,33.28
2023-03-06T06:52:24.215Z,32.72
2023-03-06T06:54:51.869Z,31.73
2023-03-06T06:57:18.813Z,29.95
2023-03-06T06:59:45.824Z,31.60
2023-03-06T07:02:14.481Z,32.78
2023-03-06T07:04:56.157Z,32.67
2023-03-06T07:07:27.585Z,35.05
2023-03-06T07:09:55.337Z,34.53
2023-03-06T07:12:22.365Z,35.07
2023-03-06T07:14:49.172Z,33.85
2023-03-06T07:17:16.113Z,35.42
2023-03-06T07:19:42.986Z,36.40
2023-03-06T07:22:09.877Z,35.50
2023-03-06T07:24:36.748Z,37.92
2023-03-06T07:27:03.723Z,34.22
2023-03-06T07:29:32.942Z,35.28
2023-03-06T07:32:00.063Z,36.45
2023-03-06T07:34:27.026Z,36.53
2023-03-06T07:36:53.914Z,34.90
2023-03-06T07:39:20.873Z,35.28
2023-03-06T07:41:47.761Z,35.22
2023-03-06T07:44:14.666Z,34.33
2023-03-06T07:46:41.607Z,36.85
2023-03-06T07:49:08.559Z,34.40
2023-03-06T07:51:35.613Z,35.10
2023-03-06T07:54:02.570Z,33.03
2023-03-06T07:56:29.421Z,32.72
2023-03-06T07:58:57.161Z,34.08
2023-03-06T08:01:24.312Z,34.65
2023-03-06T08:03:52.147Z,32.38
2023-03-06T08:06:22.421Z,31.75
2023-03-06T08:08:50.953Z,33.30
2023-03-06T08:11:19.564Z,31.42
2023-03-06T08:13:48.414Z,32.67
2023-03-06T08:16:17.308Z,29.85
2023-03-06T08:18:46.230Z,30.08
2023-03-06T08:21:20.942Z,32.08
2023-03-06T08:23:48.342Z,32.08
2023-03-06T08:26:21.024Z,29.63
2023-03-06T08:28:48.157Z,29.77
2023-03-06T08:31:36.852Z,30.73
2023-03-06T08:34:06.314Z,28.50
2023-03-06T08:36:33.637Z,29.63
2023-03-06T08:39:00.900Z,30.25
2023-03-06T08:41:28.753Z,30.75
2023-03-06T08:43:55.660Z,29.02
2023-03-06T08:46:25.240Z,28.65
2023-03-06T08:48:52.234Z,29.08
2023-03-06T08:51:19.930Z,29.73
2023-03-06T08:53:47.470Z,27.38
2023-03-06T08:56:21.054Z,28.92
2023-03-06T08:58:48.105Z,28.88
2023-03-06T09:01:29.516Z,28.05
2023-03-06T09:03:59.324Z,29.73
2023-03-06T09:06:27.753Z,27.33
2023-03-06T09:08:55.209Z,28.92
2023-03-06T09:11:23.424Z,27.58
2023-03-06T09:13:50.619Z,27.35
2023-03-06T09:16:17.562Z,28.48
2023-03-06T09:18:44.467Z,28.92
2023-03-06T09:21:11.726Z,26.77
2023-03-06T09:23:39.623Z,28.70
2023-03-06T09:26:07.722Z,28.42
2023-03-06T09:28:39.245Z,30.52
2023-03-06T09:31:11.824Z,26.50
2023-03-06T09:33:39.108Z,28.15
2023-03-06T09:36:08.144Z,26.42
2023-03-06T09:38:35.276Z,25.70
2023-03-06T09:41:15.333Z,26.73
2023-03-06T09:43:45.523Z,26.67
2023-03-06T09:46:19.430Z,25.90
2023-03-06T09:49:10.396Z,25.70
2023-03-06T09:52:06.703Z,23.70
2023-03-06T09:54:44.173Z,23.65
2023-03-06T09:57:35.152Z,22.67
2023-03-06T10:00:07.397Z,23.00
2023-03-06T10:03:21.215Z,22.80
2023-03-06T10:05:53.795Z,21.83
2023-03-06T10:08:23.651Z,24.13
2023-03-06T10:11:03.697Z,23.55
2023-03-06T10:13:46.663Z,23.25
2023-03-06T10:16:25.547Z,23.95
2023-03-06T10:18:58.602Z,24.40
2023-03-06T10:21:25.436Z,23.85
2023-03-06T10:23:58.741Z,23.08
2023-03-06T10:26:32.739Z,23.77
2023-03-06T10:29:12.675Z,23.05
2023-03-06T10:31:49.669Z,23.08
2023-03-06T10:34:28.594Z,24.20
2023-03-06T10:36:58.252Z,24.48
2023-03-06T10:39:25.074Z,22.27
2023-03-06T10:41:51.948Z,24.13
2023-03-06T10:44:20.811Z,23.13
2023-03-06T10:46:51.530Z,23.42
2023-03-06T10:49:57.022Z,23.17
2023-03-06T10:52:24.580Z,24.45
2023-03-06T10:54:51.534Z,23.70
2023-03-06T10:57:28.555Z,23.00
2023-03-06T11:00:06.453Z,25.40
2023-03-06T11:02:40.890Z,23.02
2023-03-06T11:05:19.431Z,23.92
2023-03-06T11:07:57.498Z,23.17
2023-03-06T11:10:24.520Z,23.80
2023-03-06T11:12:57.534Z,22.95
2023-03-06T11:15:26.314Z,23.60
2023-03-06T11:17:56.239Z,25.67
2023-03-06T11:20:25.010Z,24.15
2023-03-06T11:23:00.364Z,23.02
2023-03-06T11:25:33.727Z,23.75
2023-03-06T11:28:41.604Z,23.98
2023-03-06T11:31:20.149Z,23.20
2023-03-06T11:34:01.997Z,22.90
2023-03-06T11:36:41.510Z,23.80
2023-03-06T11:39:37.104Z,22.40
2023-03-06T11:42:17.192Z,25.10
2023-03-06T11:45:25.000Z,24.08
2023-03-06T11:48:04.084Z,23.77
2023-03-06T11:50:38.632Z,23.38
2023-03-06T11:53:10.632Z,23.80
2023-03-06T11:56:00.750Z,22.07
2023-03-06T11:58:58.514Z,22.38
2023-03-06T12:01:40.225Z,22.20
2023-03-06T12:04:31.185Z,22.92
2023-03-06T12:07:01.416Z,21.80
2023-03-06T12:10:10.232Z,21.90
2023-03-06T12:12:58.346Z,22.83
2023-03-06T12:15:52.233Z,22.70
2023-03-06T12:19:03.408Z,22.52
2023-03-06T12:21:44.809Z,22.80
2023-03-06T12:24:27.794Z,21.08
2023-03-06T12:27:17.508Z,21.77
2023-03-06T12:29:47.393Z,19.67
2023-03-06T12:32:23.282Z,19.77
2023-03-06T12:34:55.986Z,20.50
2023-03-06T12:38:08.000Z,19.50
2023-03-06T12:40:53.732Z,20.50
2023-03-06T12:43:45.582Z,20.63
2023-03-06T12:46:23.898Z,20.27
2023-03-06T12:49:08.404Z,21.65
2023-03-06T12:51:35.932Z,20.52
2023-03-06T12:54:03.467Z,20.88
2023-03-06T12:56:32.960Z,20.90
2023-03-06T12:59:03.203Z,20.17
2023-03-06T13:01:57.532Z,21.10
2023-03-06T13:04:50.144Z,22.58
2023-03-06T13:07:35.688Z,20.35
2023-03-06T13:10:16.005Z,20.23
2023-03-06T13:12:57.900Z,20.50
2023-03-06T13:15:45.487Z,20.13
2023-03-06T13:18:24.330Z,19.48
2023-03-06T13:20:56.358Z,21.33
2023-03-06T13:23:35.422Z,19.88
2023-03-06T13:26:08.803Z,21.52
2023-03-06T13:28:46.408Z,20.50
2023-03-06T13:31:36.544Z,20.00
2023-03-06T13:34:06.247Z,21.05
2023-03-06T13:36:39.743Z,19.50
2023-03-06T13:39:09.360Z,20.27
2023-03-06T13:41:38.035Z,19.30
2023-03-06T13:44:24.930Z,19.50
2023-03-06T13:47:19.451Z,19.40
2023-03-06T13:49:48.248Z,20.17
2023-03-06T13:52:30.208Z,19.77
2023-03-06T13:55:12.375Z,19.50
2023-03-06T13:57:39.173Z,18.80
2023-03-06T14:00:32.148Z,20.73
2023-03-06T14:03:29.162Z,20.05
2023-03-06T14:05:56.277Z,20.65
2023-03-06T14:08:31.690Z,19.52
2023-03-06T14:11:13.604Z,20.30
2023-03-06T14:13:48.384Z,19.43
2023-03-06T14:16:24.522Z,20.17
2023-03-06T14:18:54.346Z,19.50
2023-03-06T14:21:55.537Z,20.40
2023-03-06T14:24:53.472Z,19.67
2023-03-06T14:27:20.576Z,18.92
2023-03-06T14:29:48.732Z,18.40
2023-03-06T14:32:22.396Z,20.20
2023-03-06T14:34:49.468Z,18.40
2023-03-06T14:37:22.755Z,18.73
2023-03-06T14:39:49.786Z,19.48
2023-03-06T14:42:25.201Z,18.80
2023-03-06T14:45:13.117Z,19.58
2023-03-06T14:47:39.930Z,19.65
2023-03-06T14:50:23.675Z,17.98
2023-03-06T14:53:04.869Z,18.70
2023-03-06T14:55:34.749Z,19.73
2023-03-06T14:58:15.054Z,18.40
2023-03-06T15:00:45.980Z,19.30
2023-03-06T15:03:20.983Z,20.63
2023-03-06T15:05:49.230Z,21.00
2023-03-06T15:08:25.653Z,19.20
2023-03-06T15:11:04.461Z,21.73
2023-03-06T15:13:33.070Z,21.75
2023-03-06T15:16:06.445Z,32.35
2023-03-06T15:18:58.455Z,21.50
2023-03-06T15:21:29.230Z,18.90
2023-03-06T15:23:57.655Z,19.95
2023-03-06T15:26:31.478Z,20.35
2023-03-06T15:29:10.030Z,19.80
2023-03-06T15:31:42.394Z,20.23
2023-03-06T15:34:09.283Z,18.30
2023-03-06T15:36:36.971Z,19.83
2023-03-06T15:39:28.556Z,21.45
2023-03-06T15:42:12.286Z,20.10
2023-03-06T15:44:39.114Z,19.40
2023-03-06T15:47:09.571Z,19.40
2023-03-06T15:49:38.462Z,18.27
2023-03-06T15:52:08.942Z,19.85
2023-03-06T15:54:36.410Z,19.83
2023-03-06T15:57:05.909Z,20.05
2023-03-06T15:59:40.386Z,20.15
2023-03-06T16:02:33.488Z,18.73
2023-03-06T16:05:02.522Z,20.67
2023-03-06T16:07:29.328Z,20.60
2023-03-06T16:09:56.258Z,19.90
2023-03-06T16:12:31.256Z,20.00
2023-03-06T16:15:01.054Z,20.80
2023-03-06T16:17:27.920Z,19.70
2023-03-06T16:19:54.758Z,21.70
2023-03-06T16:22:21.585Z,20.40
2023-03-06T16:24:48.412Z,21.05
2023-03-06T16:27:18.923Z,21.25
2023-03-06T16:29:46.094Z,20.80
2023-03-06T16:32:13.043Z,21.00
2023-03-06T16:34:39.920Z,20.63
2023-03-06T16:37:11.094Z,19.80
2023-03-06T16:39:37.922Z,19.63
2023-03-06T16:42:04.913Z,20.77
2023-03-06T16:44:31.701Z,19.45
2023-03-06T16:47:00.766Z,21.08
2023-03-06T16:49:27.819Z,18.95
2023-03-06T16:51:55.757Z,19.00
2023-03-06T16:54:26.013Z,18.80
2023-03-06T16:56:52.869Z,18.67
2023-03-06T16:59:19.792Z,18.88
2023-03-06T17:01:46.844Z,20.02
2023-03-06T17:04:13.692Z,19.65
2023-03-06T17:06:41.873Z,18.80
2023-03-06T17:09:10.866Z,19.20
2023-03-06T17:11:43.011Z,20.27
2023-03-06T17:14:09.883Z,19.27
2023-03-06T17:16:40.151Z,19.17
2023-03-06T17:19:07.585Z,20.60
2023-03-06T17:21:35.444Z,19.98
2023-03-06T17:24:03.741Z,22.80
2023-03-06T17:26:30.844Z,24.55
2023-03-06T17:28:57.789Z,22.77
2023-03-06T17:31:26.753Z,20.05
2023-03-06T17:33:57.136Z,20.85
2023-03-06T17:36:24.004Z,24.88
2023-03-06T17:38:54.113Z,23.27
2023-03-06T17:41:24.365Z,21.60
2023-03-06T17:43:52.665Z,22.20
2023-03-06T17:46:19.751Z,22.63
2023-03-06T17:48:46.925Z,22.10
2023-03-06T17:51:14.323Z,23.03
2023-03-06T17:53:41.201Z,22.25
2023-03-06T17:56:11.045Z,21.58
2023-03-06T17:58:37.939Z,21.10
2023-03-06T18:01:12.306Z,22.42
2023-03-06T18:03:39.623Z,21.77
2023-03-06T18:06:09.475Z,21.05
2023-03-06T18:08:37.271Z,20.55
2023-03-06T18:11:06.186Z,20.80
2023-03-06T18:13:34.623Z,21.17
2023-03-06T18:16:02.331Z,20.80
2023-03-06T18:18:29.717Z,21.67
2023-03-06T18:20:56.893Z,20.30
2023-03-06T18:23:23.889Z,21.00
2023-03-06T18:25:50.782Z,21.27
2023-03-06T18:28:17.764Z,20.85
2023-03-06T18:30:44.614Z,21.00
2023-03-06T18:33:11.549Z,21.73
2023-03-06T18:35:38.481Z,19.92
2023-03-06T18:38:05.388Z,20.67
2023-03-06T18:40:32.227Z,21.02
2023-03-06T18:42:59.101Z,20.80
2023-03-06T18:45:26.033Z,20.55
2023-03-06T18:47:52.959Z,20.58
2023-03-06T18:50:19.988Z,21.00
2023-03-06T18:52:46.933Z,20.67
2023-03-06T18:55:13.772Z,21.75
2023-03-06T18:57:41.033Z,20.63
2023-03-06T19:00:08.971Z,20.75
2023-03-06T19:02:35.940Z,21.92
2023-03-06T19:05:02.944Z,20.23
2023-03-06T19:07:29.817Z,20.70
2023-03-06T19:09:56.684Z,23.27
2023-03-06T19:12:23.613Z,21.50
2023-03-06T19:14:50.469Z,21.88
2023-03-06T19:17:17.424Z,20.38
2023-03-06T19:19:44.325Z,21.63
2023-03-06T19:22:11.203Z,21.42
2023-03-06T19:24:38.059Z,21.80
2023-03-06T19:27:04.925Z,21.00
2023-03-06T19:29:32.516Z,22.70
2023-03-06T19:31:59.506Z,21.30
2023-03-06T19:34:26.461Z,20.90
2023-03-06T19:36:53.462Z,22.38
2023-03-06T19:39:20.306Z,22.67
2023-03-06T19:41:48.009Z,23.17
2023-03-06T19:44:16.296Z,22.83
2023-03-06T19:46:43.666Z,22.90
2023-03-06T19:49:16.843Z,24.25
2023-03-06T19:51:44.481Z,23.20
2023-03-06T19:54:12.330Z,21.92
2023-03-06T19:56:39.796Z,21.88
2023-03-06T19:59:06.743Z,23.10
2023-03-06T20:01:34.364Z,22.83
2023-03-06T20:04:02.105Z,22.10
2023-03-06T20:06:33.627Z,22.05
2023-03-06T20:09:02.487Z,22.75
2023-03-06T20:11:32.623Z,22.98
2023-03-06T20:14:07.177Z,21.85
2023-03-06T20:16:34.788Z,21.35
2023-03-06T20:19:02.125Z,21.50
2023-03-06T20:21:31.850Z,21.67
2023-03-06T20:23:59.354Z,22.10
2023-03-06T20:26:27.575Z,21.27
2023-03-06T20:28:54.994Z,21.17
2023-03-06T20:31:24.293Z,20.90
2023-03-06T20:33:52.995Z,21.83
2023-03-06T20:36:29.607Z,21.60
2023-03-06T20:38:59.537Z,22.08
2023-03-06T20:41:28.582Z,21.38
2023-03-06T20:43:55.828Z,22.02
2023-03-06T20:46:23.583Z,21.00
2023-03-06T20:48:52.704Z,21.60
2023-03-06T20:51:25.310Z,21.90
2023-03-06T20:53:55.780Z,22.57
2023-03-06T20:56:30.528Z,20.80
2023-03-06T20:58:58.176Z,21.73
2023-03-06T21:01:31.070Z,21.88
2023-03-06T21:03:59.083Z,22.58
2023-03-06T21:06:28.545Z,22.67
2023-03-06T21:08:57.026Z,22.65
2023-03-06T21:11:24.678Z,21.77
2023-03-06T21:13:52.487Z,22.27
2023-03-06T21:16:21.099Z,20.70
2023-03-06T21:18:48.118Z,22.20
2023-03-06T21:21:18.458Z,21.02
2023-03-06T21:23:46.948Z,20.90
2023-03-06T21:26:16.150Z,20.70
2023-03-06T21:28:42.992Z,20.88
2023-03-06T21:31:11.577Z,22.00
2023-03-06T21:33:39.056Z,21.75
2023-03-06T21:36:07.038Z,20.80
2023-03-06T21:38:34.186Z,22.83
2023-03-06T21:41:16.008Z,20.65
2023-03-06T21:43:43.453Z,20.13
2023-03-06T21:46:10.739Z,19.70
2023-03-06T21:48:37.913Z,21.70
2023-03-06T21:51:07.058Z,20.70
2023-03-06T21:53:34.636Z,21.50
2023-03-06T21:56:02.092Z,21.83
2023-03-06T21:58:29.798Z,22.30
2023-03-06T22:00:57.011Z,21.42
2023-03-06T22:03:24.112Z,23.10
2023-03-06T22:05:52.099Z,24.48
2023-03-06T22:08:24.333Z,24.03
2023-03-06T22:10:51.253Z,23.38
2023-03-06T22:13:18.222Z,23.98
2023-03-06T22:15:52.727Z,22.65
2023-03-06T22:18:20.459Z,25.20
2023-03-06T22:20:47.417Z,21.23
2023-03-06T22:23:14.399Z,22.95
2023-03-06T22:25:41.253Z,24.35
2023-03-06T22:28:08.187Z,25.02
2023-03-06T22:30:35.067Z,24.88
2023-03-06T22:33:01.986Z,23.35
2023-03-06T22:35:28.957Z,23.20
2023-03-06T22:37:55.909Z,22.60
2023-03-06T22:40:22.766Z,22.85
2023-03-06T22:42:49.713Z,24.13
2023-03-06T22:45:16.604Z,23.15
2023-03-06T22:47:43.505Z,22.90
2023-03-06T22:50:11.002Z,23.38
2023-03-06T22:52:37.892Z,22.60
2023-03-06T22:55:05.232Z,23.17
2023-03-06T22:57:32.272Z,24.27
2023-03-06T22:59:59.118Z,23.20
2023-03-06T23:02:25.969Z,22.67
2023-03-06T23:04:53.319Z,22.60
2023-03-06T23:07:20.819Z,23.02
2023-03-06T23:09:47.764Z,22.25
2023-03-06T23:12:14.630Z,22.70
2023-03-06T23:14:41.708Z,22.25
2023-03-06T23:17:09.235Z,23.00
2023-03-06T23:19:36.245Z,23.60
2023-03-06T23:22:03.135Z,23.30
2023-03-06T23:24:30.165Z,22.10
2023-03-06T23:26:57.001Z,24.63
2023-03-06T23:29:23.838Z,23.63
2023-03-06T23:31:50.678Z,23.13
2023-03-06T23:34:17.609Z,25.08
2023-03-06T23:36:44.449Z,23.57
2023-03-06T23:39:12.354Z,22.58
2023-03-06T23:41:39.116Z,23.00
2023-03-06T23:44:24.772Z,22.65
2023-03-06T23:47:10.334Z,23.05
2023-03-06T23:49:55.855Z,24.73
2023-03-06T23:52:41.305Z,24.13
2023-03-06T23:55:27.215Z,23.60
2023-03-06T23:58:13.723Z,23.52
